sensor_id;sensor_type;location;lat;lon;timestamp;P1;durP1;ratioP1;P2;durP2;ratioP2
28483;SDS011;15704;48.834;8.736;2023-07-30T00:00:51;4.78;;;1.15;;
28483;SDS011;15704;48.834;8.736;2023-07-30T00:03:17;1.02;;;0.75;;
28483;SDS011;15704;48.834;8.736;2023-07-30T00:06:02;6.70;;;0.98;;
28483;SDS011;15704;48.834;8.736;2023-07-30T00:08:29;3.17;;;0.70;;
28483;SDS011;15704;48.834;8.736;2023-07-30T00:10:56;2.28;;;1.15;;
28483;SDS011;15704;48.834;8.736;2023-07-30T00:13:24;1.05;;;0.60;;
28483;SDS011;15704;48.834;8.736;2023-07-30T00:15:51;0.90;;;0.70;;
28483;SDS011;15704;48.834;8.736;2023-07-30T00:18:18;2.17;;;0.75;;
28483;SDS011;15704;48.834;8.736;2023-07-30T00:20:45;1.75;;;0.77;;
28483;SDS011;15704;48.834;8.736;2023-07-30T00:23:12;1.77;;;0.80;;
28483;SDS011;15704;48.834;8.736;2023-07-30T00:25:39;2.35;;;0.73;;
28483;SDS011;15704;48.834;8.736;2023-07-30T00:28:05;2.90;;;0.80;;
28483;SDS011;15704;48.834;8.736;2023-07-30T00:30:32;2.70;;;1.08;;
28483;SDS011;15704;48.834;8.736;2023-07-30T00:32:59;2.97;;;0.98;;
28483;SDS011;15704;48.834;8.736;2023-07-30T00:35:26;6.25;;;1.00;;
28483;SDS011;15704;48.834;8.736;2023-07-30T00:37:53;5.63;;;1.00;;
28483;SDS011;15704;48.834;8.736;2023-07-30T00:40:20;3.38;;;0.90;;
28483;SDS011;15704;48.834;8.736;2023-07-30T00:42:46;3.13;;;1.05;;
28483;SDS011;15704;48.834;8.736;2023-07-30T00:45:13;1.38;;;1.08;;
28483;SDS011;15704;48.834;8.736;2023-07-30T00:47:40;1.17;;;0.95;;
28483;SDS011;15704;48.834;8.736;2023-07-30T00:50:07;2.53;;;1.27;;
28483;SDS011;15704;48.834;8.736;2023-07-30T00:52:36;1.58;;;1.10;;
28483;SDS011;15704;48.834;8.736;2023-07-30T00:55:03;1.70;;;1.27;;
28483;SDS011;15704;48.834;8.736;2023-07-30T00:57:30;0.88;;;0.88;;
28483;SDS011;15704;48.834;8.736;2023-07-30T00:59:58;1.30;;;1.00;;
28483;SDS011;15704;48.834;8.736;2023-07-30T01:02:25;2.33;;;1.45;;
28483;SDS011;15704;48.834;8.736;2023-07-30T01:04:54;1.75;;;1.20;;
28483;SDS011;15704;48.834;8.736;2023-07-30T01:07:21;1.77;;;1.17;;
28483;SDS011;15704;48.834;8.736;2023-07-30T01:09:47;2.00;;;0.98;;
28483;SDS011;15704;48.834;8.736;2023-07-30T01:12:14;1.70;;;1.27;;
28483;SDS011;15704;48.834;8.736;2023-07-30T01:14:41;1.38;;;1.20;;
28483;SDS011;15704;48.834;8.736;2023-07-30T01:17:09;1.20;;;1.10;;
28483;SDS011;15704;48.834;8.736;2023-07-30T01:19:36;1.30;;;1.00;;
28483;SDS011;15704;48.834;8.736;2023-07-30T01:22:03;1.38;;;1.02;;
28483;SDS011;15704;48.834;8.736;2023-07-30T01:24:30;2.20;;;1.20;;
28483;SDS011;15704;48.834;8.736;2023-07-30T01:27:04;1.38;;;1.20;;
28483;SDS011;15704;48.834;8.736;2023-07-30T01:29:43;1.52;;;1.10;;
28483;SDS011;15704;48.834;8.736;2023-07-30T01:32:14;1.17;;;1.07;;
28483;SDS011;15704;48.834;8.736;2023-07-30T01:34:42;2.65;;;1.05;;
28483;SDS011;15704;48.834;8.736;2023-07-30T01:37:12;1.52;;;0.95;;
28483;SDS011;15704;48.834;8.736;2023-07-30T01:39:41;3.72;;;1.20;;
28483;SDS011;15704;48.834;8.736;2023-07-30T01:42:13;2.70;;;1.20;;
28483;SDS011;15704;48.834;8.736;2023-07-30T01:44:40;1.77;;;0.93;;
28483;SDS011;15704;48.834;8.736;2023-07-30T01:47:07;1.45;;;1.10;;
28483;SDS011;15704;48.834;8.736;2023-07-30T01:49:34;2.45;;;1.40;;
28483;SDS011;15704;48.834;8.736;2023-07-30T01:52:00;1.33;;;1.00;;
28483;SDS011;15704;48.834;8.736;2023-07-30T01:54:27;1.77;;;1.10;;
28483;SDS011;15704;48.834;8.736;2023-07-30T01:56:54;1.13;;;1.00;;
28483;SDS011;15704;48.834;8.736;2023-07-30T01:59:21;1.48;;;1.10;;
28483;SDS011;15704;48.834;8.736;2023-07-30T02:01:47;1.30;;;1.20;;
28483;SDS011;15704;48.834;8.736;2023-07-30T02:04:14;1.35;;;1.20;;
28483;SDS011;15704;48.834;8.736;2023-07-30T02:06:42;2.25;;;1.40;;
28483;SDS011;15704;48.834;8.736;2023-07-30T02:09:09;1.08;;;0.98;;
28483;SDS011;15704;48.834;8.736;2023-07-30T02:11:36;1.60;;;1.50;;
28483;SDS011;15704;48.834;8.736;2023-07-30T02:14:03;2.10;;;1.70;;
28483;SDS011;15704;48.834;8.736;2023-07-30T02:16:30;2.67;;;1.80;;
28483;SDS011;15704;48.834;8.736;2023-07-30T02:18:56;4.25;;;1.80;;
28483;SDS011;15704;48.834;8.736;2023-07-30T02:21:23;3.83;;;2.17;;
28483;SDS011;15704;48.834;8.736;2023-07-30T02:23:50;2.70;;;1.83;;
28483;SDS011;15704;48.834;8.736;2023-07-30T02:26:17;7.15;;;2.20;;
28483;SDS011;15704;48.834;8.736;2023-07-30T02:28:43;2.42;;;1.83;;
28483;SDS011;15704;48.834;8.736;2023-07-30T02:31:10;2.20;;;1.90;;
28483;SDS011;15704;48.834;8.736;2023-07-30T02:33:37;2.58;;;2.08;;
28483;SDS011;15704;48.834;8.736;2023-07-30T02:36:04;3.80;;;2.33;;
28483;SDS011;15704;48.834;8.736;2023-07-30T02:38:30;3.25;;;2.05;;
28483;SDS011;15704;48.834;8.736;2023-07-30T02:40:57;2.15;;;1.90;;
28483;SDS011;15704;48.834;8.736;2023-07-30T02:43:24;2.92;;;2.10;;
28483;SDS011;15704;48.834;8.736;2023-07-30T02:45:50;2.78;;;2.13;;
28483;SDS011;15704;48.834;8.736;2023-07-30T02:48:17;2.55;;;2.15;;
28483;SDS011;15704;48.834;8.736;2023-07-30T02:50:44;3.53;;;2.30;;
28483;SDS011;15704;48.834;8.736;2023-07-30T02:53:11;3.50;;;2.13;;
28483;SDS011;15704;48.834;8.736;2023-07-30T02:55:38;4.85;;;2.75;;
28483;SDS011;15704;48.834;8.736;2023-07-30T02:58:04;3.47;;;2.13;;
28483;SDS011;15704;48.834;8.736;2023-07-30T03:00:31;4.35;;;2.33;;
28483;SDS011;15704;48.834;8.736;2023-07-30T03:02:58;4.07;;;2.53;;
28483;SDS011;15704;48.834;8.736;2023-07-30T03:05:26;4.60;;;2.75;;
28483;SDS011;15704;48.834;8.736;2023-07-30T03:07:53;4.53;;;2.67;;
28483;SDS011;15704;48.834;8.736;2023-07-30T03:10:20;2.90;;;2.33;;
28483;SDS011;15704;48.834;8.736;2023-07-30T03:12:47;4.78;;;2.17;;
28483;SDS011;15704;48.834;8.736;2023-07-30T03:15:14;3.80;;;2.10;;
28483;SDS011;15704;48.834;8.736;2023-07-30T03:17:41;5.50;;;2.47;;
28483;SDS011;15704;48.834;8.736;2023-07-30T03:20:07;3.53;;;2.63;;
28483;SDS011;15704;48.834;8.736;2023-07-30T03:22:35;3.47;;;2.13;;
28483;SDS011;15704;48.834;8.736;2023-07-30T03:25:02;3.20;;;2.13;;
28483;SDS011;15704;48.834;8.736;2023-07-30T03:27:29;2.95;;;2.35;;
28483;SDS011;15704;48.834;8.736;2023-07-30T03:29:55;5.70;;;2.47;;
28483;SDS011;15704;48.834;8.736;2023-07-30T03:32:22;4.45;;;2.33;;
28483;SDS011;15704;48.834;8.736;2023-07-30T03:34:49;3.10;;;2.13;;
28483;SDS011;15704;48.834;8.736;2023-07-30T03:37:16;2.60;;;2.00;;
28483;SDS011;15704;48.834;8.736;2023-07-30T03:39:42;2.90;;;2.50;;
28483;SDS011;15704;48.834;8.736;2023-07-30T03:42:09;3.88;;;2.17;;
28483;SDS011;15704;48.834;8.736;2023-07-30T03:44:36;5.43;;;2.33;;
28483;SDS011;15704;48.834;8.736;2023-07-30T03:47:03;5.13;;;2.05;;
28483;SDS011;15704;48.834;8.736;2023-07-30T03:49:29;3.40;;;2.00;;
28483;SDS011;15704;48.834;8.736;2023-07-30T03:51:56;2.83;;;2.17;;
28483;SDS011;15704;48.834;8.736;2023-07-30T03:54:23;4.20;;;2.55;;
28483;SDS011;15704;48.834;8.736;2023-07-30T03:56:50;4.50;;;2.63;;
28483;SDS011;15704;48.834;8.736;2023-07-30T03:59:16;4.50;;;2.50;;
28483;SDS011;15704;48.834;8.736;2023-07-30T04:01:43;4.70;;;2.42;;
28483;SDS011;15704;48.834;8.736;2023-07-30T04:04:10;6.78;;;2.17;;
28483;SDS011;15704;48.834;8.736;2023-07-30T04:06:39;3.88;;;2.30;;
28483;SDS011;15704;48.834;8.736;2023-07-30T04:09:06;3.47;;;1.90;;
28483;SDS011;15704;48.834;8.736;2023-07-30T04:11:33;9.23;;;2.22;;
28483;SDS011;15704;48.834;8.736;2023-07-30T04:13:59;2.83;;;1.80;;
28483;SDS011;15704;48.834;8.736;2023-07-30T04:16:26;4.38;;;1.95;;
28483;SDS011;15704;48.834;8.736;2023-07-30T04:18:53;3.28;;;1.73;;
28483;SDS011;15704;48.834;8.736;2023-07-30T04:21:20;2.78;;;1.33;;
28483;SDS011;15704;48.834;8.736;2023-07-30T04:23:46;1.40;;;1.30;;
28483;SDS011;15704;48.834;8.736;2023-07-30T04:26:14;2.42;;;1.30;;
28483;SDS011;15704;48.834;8.736;2023-07-30T04:28:41;2.13;;;1.17;;
28483;SDS011;15704;48.834;8.736;2023-07-30T04:31:07;1.05;;;0.80;;
28483;SDS011;15704;48.834;8.736;2023-07-30T04:33:34;1.65;;;1.08;;
28483;SDS011;15704;48.834;8.736;2023-07-30T04:36:01;1.92;;;1.17;;
28483;SDS011;15704;48.834;8.736;2023-07-30T04:38:28;1.65;;;1.00;;
28483;SDS011;15704;48.834;8.736;2023-07-30T04:40:57;2.05;;;1.15;;
28483;SDS011;15704;48.834;8.736;2023-07-30T04:43:24;2.90;;;1.20;;
28483;SDS011;15704;48.834;8.736;2023-07-30T04:45:51;3.10;;;1.42;;
28483;SDS011;15704;48.834;8.736;2023-07-30T04:48:18;2.45;;;1.02;;
28483;SDS011;15704;48.834;8.736;2023-07-30T04:50:45;3.00;;;1.13;;
28483;SDS011;15704;48.834;8.736;2023-07-30T04:53:11;2.13;;;1.30;;
28483;SDS011;15704;48.834;8.736;2023-07-30T04:55:38;1.52;;;1.17;;
28483;SDS011;15704;48.834;8.736;2023-07-30T04:58:05;3.97;;;1.23;;
28483;SDS011;15704;48.834;8.736;2023-07-30T05:00:32;2.13;;;1.10;;
28483;SDS011;15704;48.834;8.736;2023-07-30T05:02:58;2.53;;;1.25;;
28483;SDS011;15704;48.834;8.736;2023-07-30T05:05:25;1.88;;;1.20;;
28483;SDS011;15704;48.834;8.736;2023-07-30T05:07:52;1.40;;;1.20;;
28483;SDS011;15704;48.834;8.736;2023-07-30T05:10:19;1.02;;;0.95;;
28483;SDS011;15704;48.834;8.736;2023-07-30T05:12:45;2.13;;;0.93;;
28483;SDS011;15704;48.834;8.736;2023-07-30T05:15:12;1.02;;;0.90;;
28483;SDS011;15704;48.834;8.736;2023-07-30T05:17:42;1.70;;;0.80;;
28483;SDS011;15704;48.834;8.736;2023-07-30T05:20:09;1.23;;;0.80;;
28483;SDS011;15704;48.834;8.736;2023-07-30T05:22:36;1.25;;;0.90;;
28483;SDS011;15704;48.834;8.736;2023-07-30T05:25:03;0.95;;;0.85;;
28483;SDS011;15704;48.834;8.736;2023-07-30T05:27:30;4.47;;;1.08;;
28483;SDS011;15704;48.834;8.736;2023-07-30T05:29:58;1.00;;;0.95;;
28483;SDS011;15704;48.834;8.736;2023-07-30T05:32:25;3.15;;;1.10;;
28483;SDS011;15704;48.834;8.736;2023-07-30T05:34:52;1.42;;;0.90;;
28483;SDS011;15704;48.834;8.736;2023-07-30T05:37:19;1.83;;;0.90;;
28483;SDS011;15704;48.834;8.736;2023-07-30T05:39:45;1.55;;;1.20;;
28483;SDS011;15704;48.834;8.736;2023-07-30T05:42:12;4.10;;;1.15;;
28483;SDS011;15704;48.834;8.736;2023-07-30T05:44:39;3.28;;;0.90;;
28483;SDS011;15704;48.834;8.736;2023-07-30T05:47:06;1.15;;;0.90;;
28483;SDS011;15704;48.834;8.736;2023-07-30T05:49:32;0.95;;;0.70;;
28483;SDS011;15704;48.834;8.736;2023-07-30T05:51:59;3.42;;;1.00;;
28483;SDS011;15704;48.834;8.736;2023-07-30T05:54:26;1.35;;;1.15;;
28483;SDS011;15704;48.834;8.736;2023-07-30T05:56:52;2.35;;;0.98;;
28483;SDS011;15704;48.834;8.736;2023-07-30T05:59:19;2.20;;;1.20;;
28483;SDS011;15704;48.834;8.736;2023-07-30T06:01:48;1.52;;;0.90;;
28483;SDS011;15704;48.834;8.736;2023-07-30T06:04:15;1.00;;;0.70;;
28483;SDS011;15704;48.834;8.736;2023-07-30T06:06:42;1.65;;;0.80;;
28483;SDS011;15704;48.834;8.736;2023-07-30T06:09:09;4.18;;;1.02;;
28483;SDS011;15704;48.834;8.736;2023-07-30T06:11:37;1.42;;;1.02;;
28483;SDS011;15704;48.834;8.736;2023-07-30T06:14:04;2.42;;;1.40;;
28483;SDS011;15704;48.834;8.736;2023-07-30T06:16:31;2.13;;;1.10;;
28483;SDS011;15704;48.834;8.736;2023-07-30T06:18:58;2.63;;;1.27;;
28483;SDS011;15704;48.834;8.736;2023-07-30T06:21:25;1.83;;;1.10;;
28483;SDS011;15704;48.834;8.736;2023-07-30T06:23:55;2.08;;;1.17;;
28483;SDS011;15704;48.834;8.736;2023-07-30T06:26:22;2.55;;;1.35;;
28483;SDS011;15704;48.834;8.736;2023-07-30T06:28:48;1.27;;;1.05;;
28483;SDS011;15704;48.834;8.736;2023-07-30T06:31:15;1.45;;;1.20;;
28483;SDS011;15704;48.834;8.736;2023-07-30T06:33:45;2.08;;;1.25;;
28483;SDS011;15704;48.834;8.736;2023-07-30T06:36:12;3.05;;;1.40;;
28483;SDS011;15704;48.834;8.736;2023-07-30T06:38:38;2.75;;;1.23;;
28483;SDS011;15704;48.834;8.736;2023-07-30T06:41:05;9.50;;;1.50;;
28483;SDS011;15704;48.834;8.736;2023-07-30T06:43:32;1.15;;;0.85;;
28483;SDS011;15704;48.834;8.736;2023-07-30T06:45:59;4.53;;;1.67;;
28483;SDS011;15704;48.834;8.736;2023-07-30T06:48:29;2.22;;;1.10;;
28483;SDS011;15704;48.834;8.736;2023-07-30T06:50:56;2.67;;;1.02;;
28483;SDS011;15704;48.834;8.736;2023-07-30T06:53:23;2.83;;;1.15;;
28483;SDS011;15704;48.834;8.736;2023-07-30T06:55:50;1.95;;;1.45;;
28483;SDS011;15704;48.834;8.736;2023-07-30T06:58:17;3.97;;;1.42;;
28483;SDS011;15704;48.834;8.736;2023-07-30T07:00:46;3.47;;;1.60;;
28483;SDS011;15704;48.834;8.736;2023-07-30T07:03:13;1.92;;;1.40;;
28483;SDS011;15704;48.834;8.736;2023-07-30T07:05:40;1.70;;;1.30;;
28483;SDS011;15704;48.834;8.736;2023-07-30T07:08:10;7.55;;;1.40;;
28483;SDS011;15704;48.834;8.736;2023-07-30T07:10:37;2.50;;;1.38;;
28483;SDS011;15704;48.834;8.736;2023-07-30T07:13:03;2.20;;;1.10;;
28483;SDS011;15704;48.834;8.736;2023-07-30T07:15:30;2.65;;;1.33;;
28483;SDS011;15704;48.834;8.736;2023-07-30T07:17:57;6.13;;;1.10;;
28483;SDS011;15704;48.834;8.736;2023-07-30T07:20:24;1.38;;;1.20;;
28483;SDS011;15704;48.834;8.736;2023-07-30T07:22:53;8.82;;;1.10;;
28483;SDS011;15704;48.834;8.736;2023-07-30T07:25:20;1.52;;;1.38;;
28483;SDS011;15704;48.834;8.736;2023-07-30T07:27:47;4.38;;;1.20;;
28483;SDS011;15704;48.834;8.736;2023-07-30T07:30:14;4.10;;;1.40;;
28483;SDS011;15704;48.834;8.736;2023-07-30T07:32:43;1.15;;;1.00;;
28483;SDS011;15704;48.834;8.736;2023-07-30T07:35:10;1.83;;;1.17;;
28483;SDS011;15704;48.834;8.736;2023-07-30T07:37:37;1.42;;;1.23;;
28483;SDS011;15704;48.834;8.736;2023-07-30T07:40:04;3.33;;;1.70;;
28483;SDS011;15704;48.834;8.736;2023-07-30T07:42:32;2.00;;;1.63;;
28483;SDS011;15704;48.834;8.736;2023-07-30T07:44:59;4.40;;;1.58;;
28483;SDS011;15704;48.834;8.736;2023-07-30T07:47:25;2.65;;;1.80;;
28483;SDS011;15704;48.834;8.736;2023-07-30T07:49:52;6.13;;;1.70;;
28483;SDS011;15704;48.834;8.736;2023-07-30T07:52:19;6.35;;;1.67;;
28483;SDS011;15704;48.834;8.736;2023-07-30T07:54:46;2.13;;;1.52;;
28483;SDS011;15704;48.834;8.736;2023-07-30T07:57:13;1.60;;;1.27;;
28483;SDS011;15704;48.834;8.736;2023-07-30T07:59:40;1.90;;;1.40;;
28483;SDS011;15704;48.834;8.736;2023-07-30T08:02:11;3.03;;;1.92;;
28483;SDS011;15704;48.834;8.736;2023-07-30T08:04:38;3.60;;;1.30;;
28483;SDS011;15704;48.834;8.736;2023-07-30T08:07:05;6.32;;;1.52;;
28483;SDS011;15704;48.834;8.736;2023-07-30T08:09:32;1.85;;;1.63;;
28483;SDS011;15704;48.834;8.736;2023-07-30T08:11:59;1.60;;;1.20;;
28483;SDS011;15704;48.834;8.736;2023-07-30T08:14:27;3.20;;;1.40;;
28483;SDS011;15704;48.834;8.736;2023-07-30T08:16:54;4.22;;;1.60;;
28483;SDS011;15704;48.834;8.736;2023-07-30T08:19:20;4.70;;;1.50;;
28483;SDS011;15704;48.834;8.736;2023-07-30T08:21:47;3.15;;;1.58;;
28483;SDS011;15704;48.834;8.736;2023-07-30T08:24:14;1.75;;;1.30;;
28483;SDS011;15704;48.834;8.736;2023-07-30T08:26:40;2.90;;;1.38;;
28483;SDS011;15704;48.834;8.736;2023-07-30T08:29:07;2.28;;;1.40;;
28483;SDS011;15704;48.834;8.736;2023-07-30T08:31:36;4.60;;;2.00;;
28483;SDS011;15704;48.834;8.736;2023-07-30T08:34:03;2.83;;;1.38;;
28483;SDS011;15704;48.834;8.736;2023-07-30T08:36:30;7.43;;;1.73;;
28483;SDS011;15704;48.834;8.736;2023-07-30T08:38:57;2.97;;;1.40;;
28483;SDS011;15704;48.834;8.736;2023-07-30T08:41:24;2.60;;;1.65;;
28483;SDS011;15704;48.834;8.736;2023-07-30T08:43:51;3.70;;;1.73;;
28483;SDS011;15704;48.834;8.736;2023-07-30T08:46:19;2.50;;;1.40;;
28483;SDS011;15704;48.834;8.736;2023-07-30T08:48:45;2.72;;;1.45;;
28483;SDS011;15704;48.834;8.736;2023-07-30T08:51:16;3.95;;;1.65;;
28483;SDS011;15704;48.834;8.736;2023-07-30T08:53:43;3.38;;;2.00;;
28483;SDS011;15704;48.834;8.736;2023-07-30T08:56:10;2.40;;;1.55;;
28483;SDS011;15704;48.834;8.736;2023-07-30T08:58:38;3.13;;;1.90;;
28483;SDS011;15704;48.834;8.736;2023-07-30T09:01:07;3.80;;;2.17;;
28483;SDS011;15704;48.834;8.736;2023-07-30T09:03:39;2.75;;;1.60;;
28483;SDS011;15704;48.834;8.736;2023-07-30T09:06:07;5.93;;;1.70;;
28483;SDS011;15704;48.834;8.736;2023-07-30T09:08:34;10.18;;;1.70;;
28483;SDS011;15704;48.834;8.736;2023-07-30T09:11:10;1.80;;;1.40;;
28483;SDS011;15704;48.834;8.736;2023-07-30T09:13:38;2.70;;;1.55;;
28483;SDS011;15704;48.834;8.736;2023-07-30T09:16:13;2.40;;;1.90;;
28483;SDS011;15704;48.834;8.736;2023-07-30T09:18:41;3.40;;;1.45;;
28483;SDS011;15704;48.834;8.736;2023-07-30T09:21:14;3.53;;;1.92;;
28483;SDS011;15704;48.834;8.736;2023-07-30T09:23:42;3.28;;;1.70;;
28483;SDS011;15704;48.834;8.736;2023-07-30T09:26:10;1.60;;;1.38;;
28483;SDS011;15704;48.834;8.736;2023-07-30T09:28:37;2.58;;;1.65;;
28483;SDS011;15704;48.834;8.736;2023-07-30T09:31:06;3.90;;;1.77;;
28483;SDS011;15704;48.834;8.736;2023-07-30T09:33:47;3.05;;;1.98;;
28483;SDS011;15704;48.834;8.736;2023-07-30T09:36:14;2.85;;;1.65;;
28483;SDS011;15704;48.834;8.736;2023-07-30T09:38:44;4.32;;;1.63;;
28483;SDS011;15704;48.834;8.736;2023-07-30T09:41:12;5.55;;;2.20;;
28483;SDS011;15704;48.834;8.736;2023-07-30T09:43:41;3.50;;;1.80;;
28483;SDS011;15704;48.834;8.736;2023-07-30T09:46:08;5.07;;;2.13;;
28483;SDS011;15704;48.834;8.736;2023-07-30T09:48:35;3.65;;;1.60;;
28483;SDS011;15704;48.834;8.736;2023-07-30T09:51:03;4.68;;;1.88;;
28483;SDS011;15704;48.834;8.736;2023-07-30T09:53:30;2.75;;;1.75;;
28483;SDS011;15704;48.834;8.736;2023-07-30T09:56:03;5.72;;;2.08;;
28483;SDS011;15704;48.834;8.736;2023-07-30T09:58:34;6.43;;;1.50;;
28483;SDS011;15704;48.834;8.736;2023-07-30T10:01:11;4.30;;;1.77;;
28483;SDS011;15704;48.834;8.736;2023-07-30T10:03:38;3.08;;;1.92;;
28483;SDS011;15704;48.834;8.736;2023-07-30T10:06:14;5.32;;;1.90;;
28483;SDS011;15704;48.834;8.736;2023-07-30T10:08:42;3.50;;;2.08;;
28483;SDS011;15704;48.834;8.736;2023-07-30T10:11:20;7.07;;;1.90;;
28483;SDS011;15704;48.834;8.736;2023-07-30T10:13:47;3.97;;;2.00;;
28483;SDS011;15704;48.834;8.736;2023-07-30T10:16:14;2.80;;;1.60;;
28483;SDS011;15704;48.834;8.736;2023-07-30T10:18:42;2.83;;;1.67;;
28483;SDS011;15704;48.834;8.736;2023-07-30T10:21:10;3.28;;;1.80;;
28483;SDS011;15704;48.834;8.736;2023-07-30T10:24:00;3.58;;;2.00;;
28483;SDS011;15704;48.834;8.736;2023-07-30T10:26:36;3.75;;;2.20;;
28483;SDS011;15704;48.834;8.736;2023-07-30T10:31:45;1.98;;;1.65;;
28483;SDS011;15704;48.834;8.736;2023-07-30T10:34:21;3.10;;;1.75;;
28483;SDS011;15704;48.834;8.736;2023-07-30T10:36:51;3.35;;;2.22;;
28483;SDS011;15704;48.834;8.736;2023-07-30T10:39:26;5.47;;;2.53;;
28483;SDS011;15704;48.834;8.736;2023-07-30T10:42:02;2.03;;;1.58;;
28483;SDS011;15704;48.834;8.736;2023-07-30T10:44:31;3.47;;;1.73;;
28483;SDS011;15704;48.834;8.736;2023-07-30T10:47:08;9.20;;;2.03;;
28483;SDS011;15704;48.834;8.736;2023-07-30T10:49:51;5.05;;;2.30;;
28483;SDS011;15704;48.834;8.736;2023-07-30T10:52:23;12.02;;;1.90;;
28483;SDS011;15704;48.834;8.736;2023-07-30T10:54:59;4.75;;;1.73;;
28483;SDS011;15704;48.834;8.736;2023-07-30T10:57:32;2.55;;;1.90;;
28483;SDS011;15704;48.834;8.736;2023-07-30T11:00:08;5.78;;;2.78;;
28483;SDS011;15704;48.834;8.736;2023-07-30T11:02:38;2.75;;;1.73;;
28483;SDS011;15704;48.834;8.736;2023-07-30T11:05:14;6.53;;;2.38;;
28483;SDS011;15704;48.834;8.736;2023-07-30T11:07:48;3.40;;;2.00;;
28483;SDS011;15704;48.834;8.736;2023-07-30T11:10:16;3.88;;;1.92;;
28483;SDS011;15704;48.834;8.736;2023-07-30T11:12:45;2.47;;;1.50;;
28483;SDS011;15704;48.834;8.736;2023-07-30T11:15:16;3.58;;;1.92;;
28483;SDS011;15704;48.834;8.736;2023-07-30T11:17:51;4.43;;;1.60;;
28483;SDS011;15704;48.834;8.736;2023-07-30T11:20:24;3.00;;;1.73;;
28483;SDS011;15704;48.834;8.736;2023-07-30T11:22:53;5.90;;;1.92;;
28483;SDS011;15704;48.834;8.736;2023-07-30T11:25:20;2.78;;;1.80;;
28483;SDS011;15704;48.834;8.736;2023-07-30T11:27:51;2.22;;;1.60;;
28483;SDS011;15704;48.834;8.736;2023-07-30T11:30:37;1.98;;;1.50;;
28483;SDS011;15704;48.834;8.736;2023-07-30T11:33:05;2.28;;;1.60;;
28483;SDS011;15704;48.834;8.736;2023-07-30T11:35:32;3.92;;;1.90;;
28483;SDS011;15704;48.834;8.736;2023-07-30T11:38:02;4.43;;;1.92;;
28483;SDS011;15704;48.834;8.736;2023-07-30T11:40:29;4.90;;;1.70;;
28483;SDS011;15704;48.834;8.736;2023-07-30T11:42:58;2.88;;;1.83;;
28483;SDS011;15704;48.834;8.736;2023-07-30T11:45:28;2.88;;;1.60;;
28483;SDS011;15704;48.834;8.736;2023-07-30T11:48:07;2.05;;;1.42;;
28483;SDS011;15704;48.834;8.736;2023-07-30T11:50:50;4.88;;;2.05;;
28483;SDS011;15704;48.834;8.736;2023-07-30T11:53:22;4.10;;;1.63;;
28483;SDS011;15704;48.834;8.736;2023-07-30T11:56:19;4.88;;;1.50;;
28483;SDS011;15704;48.834;8.736;2023-07-30T11:58:48;2.58;;;1.75;;
28483;SDS011;15704;48.834;8.736;2023-07-30T12:01:16;3.50;;;1.73;;
28483;SDS011;15704;48.834;8.736;2023-07-30T12:03:46;3.45;;;1.35;;
28483;SDS011;15704;48.834;8.736;2023-07-30T12:06:13;4.80;;;1.58;;
28483;SDS011;15704;48.834;8.736;2023-07-30T12:08:43;4.20;;;1.73;;
28483;SDS011;15704;48.834;8.736;2023-07-30T12:11:12;2.60;;;1.80;;
28483;SDS011;15704;48.834;8.736;2023-07-30T12:13:42;6.30;;;1.52;;
28483;SDS011;15704;48.834;8.736;2023-07-30T12:16:16;4.80;;;1.50;;
28483;SDS011;15704;48.834;8.736;2023-07-30T12:18:47;2.53;;;1.30;;
28483;SDS011;15704;48.834;8.736;2023-07-30T12:21:17;3.42;;;1.65;;
28483;SDS011;15704;48.834;8.736;2023-07-30T12:23:44;3.45;;;1.67;;
28483;SDS011;15704;48.834;8.736;2023-07-30T12:26:11;4.15;;;1.67;;
28483;SDS011;15704;48.834;8.736;2023-07-30T12:28:37;3.58;;;1.60;;
28483;SDS011;15704;48.834;8.736;2023-07-30T12:31:04;4.72;;;1.73;;
28483;SDS011;15704;48.834;8.736;2023-07-30T12:33:31;3.67;;;1.77;;
28483;SDS011;15704;48.834;8.736;2023-07-30T12:35:58;4.82;;;1.27;;
28483;SDS011;15704;48.834;8.736;2023-07-30T12:38:25;3.10;;;1.27;;
28483;SDS011;15704;48.834;8.736;2023-07-30T12:40:52;4.40;;;1.90;;
28483;SDS011;15704;48.834;8.736;2023-07-30T12:43:18;3.80;;;1.27;;
28483;SDS011;15704;48.834;8.736;2023-07-30T12:45:47;5.72;;;1.40;;
28483;SDS011;15704;48.834;8.736;2023-07-30T12:48:15;2.17;;;1.40;;
28483;SDS011;15704;48.834;8.736;2023-07-30T12:50:42;4.22;;;1.52;;
28483;SDS011;15704;48.834;8.736;2023-07-30T12:53:09;2.08;;;1.33;;
28483;SDS011;15704;48.834;8.736;2023-07-30T12:55:36;6.40;;;1.50;;
28483;SDS011;15704;48.834;8.736;2023-07-30T12:58:04;4.93;;;1.60;;
28483;SDS011;15704;48.834;8.736;2023-07-30T13:00:32;3.78;;;1.30;;
28483;SDS011;15704;48.834;8.736;2023-07-30T13:02:59;3.28;;;1.30;;
28483;SDS011;15704;48.834;8.736;2023-07-30T13:05:28;2.75;;;1.60;;
28483;SDS011;15704;48.834;8.736;2023-07-30T13:07:56;2.40;;;1.42;;
28483;SDS011;15704;48.834;8.736;2023-07-30T13:10:23;3.45;;;1.42;;
28483;SDS011;15704;48.834;8.736;2023-07-30T13:12:50;3.70;;;1.70;;
28483;SDS011;15704;48.834;8.736;2023-07-30T13:15:16;3.92;;;1.20;;
28483;SDS011;15704;48.834;8.736;2023-07-30T13:17:43;2.83;;;1.52;;
28483;SDS011;15704;48.834;8.736;2023-07-30T13:20:13;4.53;;;1.42;;
28483;SDS011;15704;48.834;8.736;2023-07-30T13:22:42;5.85;;;1.83;;
28483;SDS011;15704;48.834;8.736;2023-07-30T13:25:09;4.05;;;1.60;;
28483;SDS011;15704;48.834;8.736;2023-07-30T13:27:38;4.35;;;1.70;;
28483;SDS011;15704;48.834;8.736;2023-07-30T13:30:05;3.92;;;1.60;;
28483;SDS011;15704;48.834;8.736;2023-07-30T13:32:35;6.13;;;1.52;;
28483;SDS011;15704;48.834;8.736;2023-07-30T13:35:02;5.55;;;1.88;;
28483;SDS011;15704;48.834;8.736;2023-07-30T13:37:29;9.10;;;1.63;;
28483;SDS011;15704;48.834;8.736;2023-07-30T13:39:56;7.00;;;1.63;;
28483;SDS011;15704;48.834;8.736;2023-07-30T13:42:23;2.75;;;1.20;;
28483;SDS011;15704;48.834;8.736;2023-07-30T13:44:50;4.75;;;1.48;;
28483;SDS011;15704;48.834;8.736;2023-07-30T13:47:17;5.53;;;1.60;;
28483;SDS011;15704;48.834;8.736;2023-07-30T13:49:44;5.88;;;1.38;;
28483;SDS011;15704;48.834;8.736;2023-07-30T13:52:13;3.42;;;1.35;;
28483;SDS011;15704;48.834;8.736;2023-07-30T13:54:40;5.15;;;1.60;;
28483;SDS011;15704;48.834;8.736;2023-07-30T13:57:08;5.32;;;1.50;;
28483;SDS011;15704;48.834;8.736;2023-07-30T13:59:44;1.67;;;1.30;;
28483;SDS011;15704;48.834;8.736;2023-07-30T14:02:10;5.10;;;1.50;;
28483;SDS011;15704;48.834;8.736;2023-07-30T14:04:37;4.35;;;1.77;;
28483;SDS011;15704;48.834;8.736;2023-07-30T14:07:04;5.30;;;1.58;;
28483;SDS011;15704;48.834;8.736;2023-07-30T14:09:32;2.95;;;1.73;;
28483;SDS011;15704;48.834;8.736;2023-07-30T14:12:03;8.38;;;1.70;;
28483;SDS011;15704;48.834;8.736;2023-07-30T14:14:30;4.10;;;1.42;;
28483;SDS011;15704;48.834;8.736;2023-07-30T14:16:57;5.72;;;1.40;;
28483;SDS011;15704;48.834;8.736;2023-07-30T14:19:32;6.10;;;1.60;;
28483;SDS011;15704;48.834;8.736;2023-07-30T14:22:05;9.57;;;1.40;;
28483;SDS011;15704;48.834;8.736;2023-07-30T14:24:37;5.18;;;1.80;;
28483;SDS011;15704;48.834;8.736;2023-07-30T14:27:08;5.57;;;1.55;;
28483;SDS011;15704;48.834;8.736;2023-07-30T14:29:37;4.93;;;1.48;;
28483;SDS011;15704;48.834;8.736;2023-07-30T14:32:04;6.43;;;1.30;;
28483;SDS011;15704;48.834;8.736;2023-07-30T14:34:36;4.57;;;2.03;;
28483;SDS011;15704;48.834;8.736;2023-07-30T14:37:03;3.22;;;1.30;;
28483;SDS011;15704;48.834;8.736;2023-07-30T14:39:30;3.70;;;1.50;;
28483;SDS011;15704;48.834;8.736;2023-07-30T14:41:56;9.75;;;1.50;;
28483;SDS011;15704;48.834;8.736;2023-07-30T14:44:26;6.20;;;1.40;;
28483;SDS011;15704;48.834;8.736;2023-07-30T14:46:53;8.27;;;1.60;;
28483;SDS011;15704;48.834;8.736;2023-07-30T14:49:20;3.15;;;1.27;;
28483;SDS011;15704;48.834;8.736;2023-07-30T14:51:46;3.60;;;1.65;;
28483;SDS011;15704;48.834;8.736;2023-07-30T14:54:19;2.97;;;1.25;;
28483;SDS011;15704;48.834;8.736;2023-07-30T14:56:49;3.88;;;1.40;;